Home > Products > Valid Products > TAF

000
FTUS43 KAPX 031720
TAFTVC
TAF
KTVC 031720Z 0318/0418 24007KT P6SM SCT070
     FM040100 VRB03KT P6SM SCT070
     FM041400 36006KT P6SM BKN060=



000
FTUS43 KAPX 031720
TAFAPN
TAF
KAPN 031720Z 0318/0418 22008KT P6SM SCT070
     FM040100 VRB03KT P6SM SCT070
     FM041400 11006KT P6SM BKN060=



000
FTUS43 KAPX 031720
TAFPLN
TAF
KPLN 031720Z 0318/0418 24008KT P6SM SCT060
     FM040100 VRB03KT P6SM SCT060
     FM041400 30006KT P6SM SCT070=



000
FTUS43 KAPX 031120
TAFAPN
TAF
KAPN 031120Z 0312/0412 VRB03KT P6SM SKC
     FM031500 20009KT P6SM SCT060
     FM040100 VRB03KT P6SM SCT070=



000
FTUS43 KAPX 031120
TAFAPN
TAF
KAPN 031120Z 0312/0412 VRB03KT P6SM SKC
     FM031500 20009KT P6SM SCT060
     FM040100 VRB03KT P6SM SCT070=



000
FTUS43 KAPX 031120
TAFTVC
TAF
KTVC 031120Z 0312/0412 VRB03KT P6SM SKC
     FM031500 24008KT P6SM SCT070
     FM040100 23003KT P6SM SCT060
     FM040700 23003KT P6SM BKN060=



000
FTUS43 KAPX 031120
TAFTVC
TAF
KTVC 031120Z 0312/0412 VRB03KT P6SM SKC
     FM031500 24008KT P6SM SCT070
     FM040100 23003KT P6SM SCT060
     FM040700 23003KT P6SM BKN060=



000
FTUS43 KAPX 031120
TAFPLN
TAF
KPLN 031120Z 0312/0412 VRB03KT P6SM BKN070
     FM031500 24009KT P6SM SCT070
     FM040100 VRB03KT P6SM SCT060=



000
FTUS43 KAPX 031120
TAFPLN
TAF
KPLN 031120Z 0312/0412 VRB03KT P6SM BKN070
     FM031500 24009KT P6SM SCT070
     FM040100 VRB03KT P6SM SCT060=



000
FTUS43 KAPX 030523
TAFPLN
TAF
KPLN 030523Z 0306/0406 VRB03KT P6SM FEW250
     FM031500 24009G15KT P6SM SCT060 BKN200
     FM040100 VRB03KT P6SM SCT120=



000
FTUS43 KAPX 030523
TAFAPN
TAF
KAPN 030523Z 0306/0406 VRB03KT P6SM SKC
     FM031500 20009KT P6SM SCT150 BKN250
     FM040100 VRB03KT P6SM SCT120=



000
FTUS43 KAPX 030523
TAFTVC
TAF
KTVC 030523Z 0306/0406 VRB03KT P6SM SKC
     FM031500 24008KT P6SM SCT150 BKN250
     FM040100 23003KT P6SM SCT120=



000
FTUS43 KAPX 022320
TAFTVC
TAF
KTVC 022320Z 0300/0324 VRB04KT P6SM SKC
     FM031500 24008KT P6SM SCT150 BKN250=



000
FTUS43 KAPX 022320
TAFAPN
TAF
KAPN 022320Z 0300/0324 VRB04KT P6SM SKC
     FM031500 20009KT P6SM SCT150 BKN250=



000
FTUS43 KAPX 022320
TAFPLN
TAF
KPLN 022320Z 0300/0324 VRB04KT P6SM SCT250
     FM031500 24009G15KT P6SM SCT060 BKN200=



000
FTUS43 KAPX 021720
TAFPLN
TAF
KPLN 021720Z 0218/0318 31007KT P6SM SKC
     FM030100 00000KT P6SM SKC
     FM031400 23007KT P6SM SCT120 BKN200=



000
FTUS43 KAPX 021720
TAFTVC
TAF
KTVC 021720Z 0218/0318 02007KT P6SM FEW040
     FM030100 00000KT P6SM SKC
     FM031400 23007KT P6SM SCT150 BKN250=



000
FTUS43 KAPX 021720
TAFAPN
TAF
KAPN 021720Z 0218/0318 04008KT P6SM FEW040
     FM030100 00000KT P6SM SKC
     FM031400 21007KT P6SM SCT150 BKN250=



000
FTUS43 KAPX 021720
TAFPLN
TAF
KPLN 021720Z 0218/0318 31007KT P6SM SKC
     FM030100 00000KT P6SM SKC
     FM031400 23007KT P6SM SCT120 BKN200=



000
FTUS43 KAPX 021720
TAFTVC
TAF
KTVC 021720Z 0218/0318 02007KT P6SM FEW040
     FM030100 00000KT P6SM SKC
     FM031400 23007KT P6SM SCT150 BKN250=



000
FTUS43 KAPX 021720
TAFAPN
TAF
KAPN 021720Z 0218/0318 04008KT P6SM FEW040
     FM030100 00000KT P6SM SKC
     FM031400 21007KT P6SM SCT150 BKN250=



000
FTUS43 KAPX 020526
TAFAPN
TAF
KAPN 020526Z 0206/0306 00000KT P6SM FEW050
     FM021500 35005KT P6SM FEW050
     FM021900 09007KT P6SM FEW050
     FM030100 00000KT P6SM SKC=



000
FTUS43 KAPX 020526
TAFTVC
TAF
KTVC 020526Z 0206/0306 00000KT P6SM SKC
     FM021600 02006KT P6SM SKC
     FM030100 00000KT P6SM SKC=



000
FTUS43 KAPX 020526
TAFPLN
TAF
KPLN 020526Z 0206/0306 00000KT P6SM SKC
     FM021500 31007KT P6SM SKC
     FM030100 00000KT P6SM FEW070=



000
FTUS43 KAPX 020526
TAFAPN
TAF
KAPN 020526Z 0206/0306 00000KT P6SM FEW050
     FM021500 35005KT P6SM FEW050
     FM021900 09007KT P6SM FEW050
     FM030100 00000KT P6SM SKC=



000
FTUS43 KAPX 020526
TAFPLN
TAF
KPLN 020526Z 0206/0306 00000KT P6SM SKC
     FM021500 31007KT P6SM SKC
     FM030100 00000KT P6SM FEW070=



000
FTUS43 KAPX 020526
TAFTVC
TAF
KTVC 020526Z 0206/0306 00000KT P6SM SKC
     FM021600 02006KT P6SM SKC
     FM030100 00000KT P6SM SKC=



000
FTUS43 KAPX 012326
TAFPLN
TAF
KPLN 012326Z 0200/0224 33009KT P6SM SCT030
     FM020100 VRB03KT P6SM SKC
     FM021500 33007KT P6SM SKC=



000
FTUS43 KAPX 012326
TAFTVC
TAF
KTVC 012326Z 0200/0224 03008KT P6SM SCT035
     FM020100 VRB04KT P6SM SKC
     FM021500 04007KT P6SM SKC=



000
FTUS43 KAPX 012326
TAFAPN
TAF
KAPN 012326Z 0200/0224 33009KT P6SM BKN025
     FM020200 VRB03KT P6SM SKC
     FM021500 02008KT P6SM SKC=



000
FTUS43 KAPX 011935 AAB
TAFPLN
TAF AMD
KPLN 011935Z 0120/0218 31008KT P6SM BKN025
     FM020000 33009KT P6SM SCT030
     FM020200 00000KT P6SM SKC
     FM021400 04006KT P6SM SKC=



000
FTUS43 KAPX 011820 AAA
TAFTVC
TAF AMD
KTVC 011820Z 0118/0218 33009KT P6SM OVC015
     FM012200 34010KT P6SM BKN025
     FM020000 35011KT P6SM SCT035
     FM020200 VRB03KT P6SM SKC
     FM021400 04006KT P6SM SKC=



000
FTUS43 KAPX 011819 AAA
TAFAPN
TAF AMD
KAPN 011819Z 0118/0218 33008KT P6SM OVC015
     FM020000 32008KT P6SM BKN025
     FM020200 33010KT P6SM SCT035
     FM020400 VRB03KT P6SM SKC
     FM021400 02007KT P6SM SKC=



000
FTUS43 KAPX 011819 AAA
TAFPLN
TAF AMD
KPLN 011819Z 0118/0218 33008KT P6SM OVC015
     FM012200 33009KT P6SM BKN025
     FM020000 33009KT P6SM SCT030
     FM020200 00000KT P6SM SKC
     FM021400 04006KT P6SM SKC=



000
FTUS43 KAPX 011720
TAFAPN
TAF
KAPN 011720Z 0118/0218 32008KT P6SM OVC008
     FM012000 33008KT P6SM OVC015
     FM020000 32008KT P6SM BKN025
     FM020200 33010KT P6SM SCT035
     FM020400 VRB03KT P6SM SKC
     FM021400 02007KT P6SM SKC=



000
FTUS43 KAPX 011720
TAFPLN
TAF
KPLN 011720Z 0118/0218 31008KT P6SM OVC008
     FM012000 33008KT P6SM OVC015
     FM012200 33009KT P6SM BKN025
     FM020000 33009KT P6SM SCT030
     FM020200 00000KT P6SM SKC
     FM021400 04006KT P6SM SKC=



000
FTUS43 KAPX 011720
TAFTVC
TAF
KTVC 011720Z 0118/0218 30007KT P6SM OVC009
     FM012000 33009KT P6SM OVC015
     FM012200 34010KT P6SM BKN025
     FM020000 35011KT P6SM SCT035
     FM020200 VRB03KT P6SM SKC
     FM021400 04006KT P6SM SKC=



000
FTUS43 KAPX 011720
TAFTVC
TAF
KTVC 011720Z 0118/0218 30007KT P6SM OVC009
     FM012000 33009KT P6SM OVC015
     FM012200 34010KT P6SM BKN025
     FM020000 35011KT P6SM SCT035
     FM020200 VRB03KT P6SM SKC
     FM021400 04006KT P6SM SKC=



000
FTUS43 KAPX 011720
TAFPLN
TAF
KPLN 011720Z 0118/0218 31008KT P6SM OVC008
     FM012000 33008KT P6SM OVC015
     FM012200 33009KT P6SM BKN025
     FM020000 33009KT P6SM SCT030
     FM020200 00000KT P6SM SKC
     FM021400 04006KT P6SM SKC=



000
FTUS43 KAPX 011720
TAFAPN
TAF
KAPN 011720Z 0118/0218 32008KT P6SM OVC008
     FM012000 33008KT P6SM OVC015
     FM020000 32008KT P6SM BKN025
     FM020200 33010KT P6SM SCT035
     FM020400 VRB03KT P6SM SKC
     FM021400 02007KT P6SM SKC=



000
FTUS43 KAPX 011552 AAB
TAFTVC
TAF AMD
KTVC 011552Z 0116/0212 30007KT P6SM OVC008
     FM011800 33009KT P6SM OVC015
     FM012000 34010KT P6SM BKN025
     FM012200 35011KT P6SM SCT035
     FM020100 VRB03KT P6SM SKC=



000
FTUS43 KAPX 011552 AAB
TAFTVC
TAF AMD
KTVC 011552Z 0116/0212 30007KT P6SM OVC008
     FM011800 33009KT P6SM OVC015
     FM012000 34010KT P6SM BKN025
     FM012200 35011KT P6SM SCT035
     FM020100 VRB03KT P6SM SKC=



000
FTUS43 KAPX 011551 AAB
TAFPLN
TAF AMD
KPLN 011551Z 0116/0212 31007KT P6SM OVC007
     FM011800 33008KT P6SM OVC015
     FM012000 33009KT P6SM BKN025
     FM012200 33009KT P6SM SCT030
     FM020100 00000KT P6SM SKC=



000
FTUS43 KAPX 011550 AAB
TAFAPN
TAF AMD
KAPN 011550Z 0116/0212 32009KT P6SM OVC005
     FM011800 33008KT P6SM OVC015
     FM012100 32008KT P6SM BKN025
     FM020000 33010KT P6SM SCT035
     FM020200 VRB03KT P6SM SKC=



000
FTUS43 KAPX 011448 AAA
TAFAPN
TAF AMD
KAPN 011448Z 0115/0212 32009KT P6SM OVC006
     FM011700 33008KT P6SM OVC016
     FM011900 32008KT P6SM BKN030
     FM012100 33010KT P6SM SCT035
     FM020200 VRB03KT P6SM SKC=



000
FTUS43 KAPX 011448 AAA
TAFAPN
TAF AMD
KAPN 011448Z 0115/0212 32009KT P6SM OVC006
     FM011700 33008KT P6SM OVC016
     FM011900 32008KT P6SM BKN030
     FM012100 33010KT P6SM SCT035
     FM020200 VRB03KT P6SM SKC=



000
FTUS43 KAPX 011304 AAA
TAFTVC
TAF AMD
KTVC 011304Z 0113/0212 28007KT P6SM OVC005
     FM011700 33009KT P6SM OVC015
     FM011900 34010KT P6SM BKN022
     FM012100 35011KT P6SM SCT030
     FM020100 VRB03KT P6SM SKC=



000
FTUS43 KAPX 011304 AAA
TAFPLN
TAF AMD
KPLN 011304Z 0113/0212 31007KT P6SM OVC005
     FM011600 33008KT P6SM OVC013
     FM011700 33009KT P6SM BKN025
     FM011900 33009KT P6SM SCT030
     FM020100 00000KT P6SM SKC=



000
FTUS43 KAPX 011304 AAA
TAFTVC
TAF AMD
KTVC 011304Z 0113/0212 28007KT P6SM OVC005
     FM011700 33009KT P6SM OVC015
     FM011900 34010KT P6SM BKN022
     FM012100 35011KT P6SM SCT030
     FM020100 VRB03KT P6SM SKC=



000
FTUS43 KAPX 011304 AAA
TAFPLN
TAF AMD
KPLN 011304Z 0113/0212 31007KT P6SM OVC005
     FM011600 33008KT P6SM OVC013
     FM011700 33009KT P6SM BKN025
     FM011900 33009KT P6SM SCT030
     FM020100 00000KT P6SM SKC=



000
FTUS43 KAPX 011120
TAFTVC
TAF
KTVC 011120Z 0112/0212 26005KT P6SM OVC007
     FM011700 33009KT P6SM OVC015
     FM011900 34010KT P6SM BKN022
     FM012100 35011KT P6SM SCT030
     FM020100 VRB03KT P6SM SKC=



000
FTUS43 KAPX 011120
TAFAPN
TAF
KAPN 011120Z 0112/0212 32006KT P6SM OVC003
      TEMPO 0112/0115 3SM -DZ
     FM011500 32009KT P6SM OVC007
     FM011700 33008KT P6SM OVC016
     FM011900 32008KT P6SM BKN030
     FM012100 33010KT P6SM SCT035
     FM020200 VRB03KT P6SM SKC=



000
FTUS43 KAPX 011120
TAFTVC
TAF
KTVC 011120Z 0112/0212 26005KT P6SM OVC007
     FM011700 33009KT P6SM OVC015
     FM011900 34010KT P6SM BKN022
     FM012100 35011KT P6SM SCT030
     FM020100 VRB03KT P6SM SKC=



000
FTUS43 KAPX 011120
TAFAPN
TAF
KAPN 011120Z 0112/0212 32006KT P6SM OVC003
      TEMPO 0112/0115 3SM -DZ
     FM011500 32009KT P6SM OVC007
     FM011700 33008KT P6SM OVC016
     FM011900 32008KT P6SM BKN030
     FM012100 33010KT P6SM SCT035
     FM020200 VRB03KT P6SM SKC=



000
FTUS43 KAPX 011120
TAFPLN
TAF
KPLN 011120Z 0112/0212 30004KT 1 1/2SM -DZ OVC003
     FM011400 31007KT P6SM OVC005
     FM011600 33008KT P6SM OVC013
     FM011700 33009KT P6SM BKN025
     FM011900 33009KT P6SM SCT030
     FM020100 00000KT P6SM SKC=



000
FTUS43 KAPX 011120
TAFPLN
TAF
KPLN 011120Z 0112/0212 30004KT 1 1/2SM -DZ OVC003
     FM011400 31007KT P6SM OVC005
     FM011600 33008KT P6SM OVC013
     FM011700 33009KT P6SM BKN025
     FM011900 33009KT P6SM SCT030
     FM020100 00000KT P6SM SKC=



000
FTUS43 KAPX 010913 AAA
TAFAPN
TAF AMD
KAPN 010913Z 0109/0206 32005KT P6SM OVC005
     FM011500 33008KT P6SM OVC012
     FM011900 34009KT P6SM BKN030=



000
FTUS43 KAPX 010538
TAFTVC
TAF
KTVC 010538Z 0106/0206 31006KT P6SM OVC009
     FM011500 34008KT P6SM OVC015
     FM011800 35008KT P6SM BKN030=



000
FTUS43 KAPX 010538
TAFPLN
TAF
KPLN 010538Z 0106/0206 30006KT P6SM OVC004
     FM011400 31007KT P6SM OVC011
     FM011700 32008KT P6SM BKN030=



000
FTUS43 KAPX 010538
TAFAPN
TAF
KAPN 010538Z 0106/0206 31004KT P6SM OVC060
     FM011000 32005KT P6SM OVC007
     FM011500 33008KT P6SM OVC012
     FM011900 34009KT P6SM BKN030=



000
FTUS43 KAPX 010353 AAB
TAFTVC
TAF AMD
KTVC 010353Z 0104/0124 34008KT P6SM SCT008 OVC012
     FM010600 33006KT P6SM OVC008
     FM011500 34008KT P6SM OVC015
     FM011800 35008KT P6SM BKN030=



000
FTUS43 KAPX 010353 AAB
TAFTVC
TAF AMD
KTVC 010353Z 0104/0124 34008KT P6SM SCT008 OVC012
     FM010600 33006KT P6SM OVC008
     FM011500 34008KT P6SM OVC015
     FM011800 35008KT P6SM BKN030=



000
FTUS43 KAPX 010218 AAA
TAFTVC
TAF AMD
KTVC 010218Z 0102/0124 34006KT P6SM SCT006 OVC010
      TEMPO 0102/0105 BKN006
     FM010500 33004KT 4SM BR OVC005
     FM011500 34008KT P6SM OVC015
     FM011800 35008KT P6SM BKN030=



000
FTUS43 KAPX 302323
TAFTVC
TAF
KTVC 302323Z 0100/0124 31007KT P6SM OVC006
     FM010400 31004KT 4SM BR OVC004
     FM011500 34008KT P6SM OVC015
     FM011800 35008KT P6SM BKN030=



000
FTUS43 KAPX 302323
TAFAPN
TAF
KAPN 302323Z 0100/0124 01004KT P6SM VCSH SCT025 OVC050
     FM010300 34004KT P6SM VCSH SCT012 OVC025
     FM010700 33004KT 4SM BR OVC006
     FM011500 33008KT P6SM OVC012
     FM011900 34009KT P6SM BKN030=



000
FTUS43 KAPX 302323
TAFPLN
TAF
KPLN 302323Z 0100/0124 34005KT P6SM VCSH SCT004 OVC010
      TEMPO 0100/0103 BKN004
     FM010300 32004KT 3SM BR OVC004
     FM011400 31007KT P6SM OVC012
     FM011700 32008KT P6SM BKN030=



000
FTUS43 KAPX 302323
TAFPLN
TAF
KPLN 302323Z 0100/0124 34005KT P6SM VCSH SCT004 OVC010
      TEMPO 0100/0103 BKN004
     FM010300 32004KT 3SM BR OVC004
     FM011400 31007KT P6SM OVC012
     FM011700 32008KT P6SM BKN030=



000
FTUS43 KAPX 302323
TAFTVC
TAF
KTVC 302323Z 0100/0124 31007KT P6SM OVC006
     FM010400 31004KT 4SM BR OVC004
     FM011500 34008KT P6SM OVC015
     FM011800 35008KT P6SM BKN030=



000
FTUS43 KAPX 302323
TAFAPN
TAF
KAPN 302323Z 0100/0124 01004KT P6SM VCSH SCT025 OVC050
     FM010300 34004KT P6SM VCSH SCT012 OVC025
     FM010700 33004KT 4SM BR OVC006
     FM011500 33008KT P6SM OVC012
     FM011900 34009KT P6SM BKN030=



000
FTUS43 KAPX 302152 AAA
TAFTVC
TAF AMD
KTVC 302152Z 3022/0118 31007KT P6SM VCSH SCT008 OVC020
      TEMPO 3022/0101 BKN008
     FM010100 31005KT 4SM BR OVC008
     FM011500 34008KT P6SM BKN030=



    US Dept of Commerce
    National Oceanic and Atmospheric Administration
    National Weather Service
    1325 East West Highway
    Silver Spring, MD 20910
    Page Author: NWS Internet Services Team
Disclaimer
Information Quality
Credits
Glossary
Privacy Policy
Freedom of Information Act (FOIA)
About Us
Career Opportunities